^^
Datos históricos de la estación: Murcia-Puente Tocinos
Diario Informe para Mayo 6, 2019 Unidades:  Ingés    Métrico   Ambas
Diario Semanal Mensual Anual
  Máxima: Mínima: Promedio:
Temperatura: 64.9 °F 46.6 °F 53.6 °F
Punto de rocio: 41.9 °F 24.6 °F 29.5 °F
Humedad: 82% 23% 42%
Velocidad viento: 10.7mph 0mph 4.8mph
Racha viento: 15.2mph - -
Viento- - SSO
Presión: 30.4 in 30.3 in -
Precipitación: 0 in    
 
 
Tabla de datos para Mayo 6, 2019
Hora Temperatura Punto de rocio Presión Viento Velocidad viento Racha viento Humedad Intensidad lluvia(por hora) Nubes
00:04 47.1 °F 41.9 °F 30.4 in Sur 5.9 mph 12 mph 82% 0 in
00:09 46.9 °F 41.7 °F 30.4 in SSO 6.8 mph 12 mph 82% 0 in
00:14 46.8 °F 41.5 °F 30.4 in SSO 7.6 mph 13 mph 81.4% 0 in
00:19 46.9 °F 41.2 °F 30.4 in SO 7.2 mph 13 mph 80.2% 0 in
00:24 47.1 °F 40.6 °F 30.4 in SO 6.9 mph 12 mph 78.4% 0 in
00:29 47.3 °F 40.3 °F 30.4 in SO 6.3 mph 10.7 mph 76.7% 0 in
00:34 47.3 °F 40.1 °F 30.4 in SSO 5.9 mph 11 mph 76% 0 in
00:39 47.5 °F 39.9 °F 30.4 in SSO 6.5 mph 12.7 mph 75.1% 0 in
00:44 47.5 °F 39.7 °F 30.4 in SSO 6.9 mph 13 mph 74.6% 0 in
00:49 47.7 °F 39.4 °F 30.4 in SSO 6.5 mph 11.8 mph 73.3% 0 in
00:54 47.7 °F 39.4 °F 30.3 in Sur 6.2 mph 12 mph 73% 0 in
00:59 47.3 °F 39.2 °F 30.3 in SSO 6.3 mph 9.7 mph 73.4% 0 in
01:04 46.9 °F 39 °F 30.3 in SSO 6.4 mph 10 mph 74% 0 in
01:09 46.8 °F 38.8 °F 30.3 in SSO 5.8 mph 10.7 mph 74% 0 in
01:14 46.8 °F 38.8 °F 30.3 in SSO 5.4 mph 11 mph 74% 0 in
01:19 46.9 °F 39 °F 30.3 in SSO 5.9 mph 9.7 mph 73.8% 0 in
01:24 46.9 °F 38.7 °F 30.3 in SSO 6.2 mph 10 mph 72.7% 0 in
01:29 47.3 °F 38.5 °F 30.3 in Sur 6 mph 9.2 mph 71.6% 0 in
01:34 47.5 °F 38.3 °F 30.3 in Sur 5.9 mph 10.4 mph 70.2% 0 in
01:39 47.7 °F 37.9 °F 30.3 in Sur 6.2 mph 10 mph 69% 0 in
01:44 47.5 °F 37.9 °F 30.3 in Sur 6.4 mph 9 mph 69.7% 0 in
01:49 47.1 °F 37.8 °F 30.3 in Sur 5.3 mph 8.5 mph 70% 0 in
01:54 47.1 °F 37.6 °F 30.3 in Sur 4.7 mph 10.4 mph 69.4% 0 in
01:59 47.1 °F 37.2 °F 30.3 in SSO 6.6 mph 11.8 mph 68.3% 0 in
02:04 46.9 °F 36.5 °F 30.3 in SSO 7.4 mph 12.3 mph 67% 0 in
02:09 46.8 °F 36.3 °F 30.3 in Sur 7.8 mph 13.8 mph 66.8% 0 in
02:14 46.6 °F 35.8 °F 30.3 in Sur 8.1 mph 14.5 mph 65.7% 0 in
02:19 46.6 °F 35.2 °F 30.3 in Sur 8.8 mph 15 mph 64.4% 0 in
02:24 46.6 °F 35.1 °F 30.3 in SSO 9.2 mph 13 mph 64% 0 in
02:29 46.8 °F 34.5 °F 30.3 in Sur 7.2 mph 12 mph 62.1% 0 in
02:34 46.9 °F 34 °F 30.3 in OSO 6.2 mph 7.4 mph 60.6% 0 in
02:39 47.5 °F 32.9 °F 30.3 in SSO 5.5 mph 9.2 mph 56.8% 0 in
02:44 49.1 °F 31.3 °F 30.3 in SO 5.2 mph 14.7 mph 50.2% 0 in
02:49 50.9 °F 30.6 °F 30.3 in SO 6.6 mph 15 mph 45.4% 0 in
02:54 51.8 °F 29.8 °F 30.3 in SO 7.4 mph 14 mph 42.7% 0 in
02:59 52.3 °F 29.7 °F 30.3 in SO 7.5 mph 14 mph 41.7% 0 in
03:04 52.2 °F 29.7 °F 30.4 in SO 7.6 mph 14.5 mph 41.8% 0 in
03:09 52.2 °F 29.1 °F 30.4 in SSO 8.2 mph 15 mph 41% 0 in
03:14 52 °F 29.1 °F 30.4 in SO 8.5 mph 14 mph 41.1% 0 in
03:19 52 °F 28.9 °F 30.4 in SO 8.9 mph 13 mph 41% 0 in
03:24 51.8 °F 28.8 °F 30.4 in SSO 9.2 mph 13 mph 41% 0 in
03:29 51.8 °F 28.8 °F 30.4 in SSO 8.9 mph 13 mph 41% 0 in
03:34 51.4 °F 28.8 °F 30.4 in SSO 8.7 mph 13.8 mph 41.4% 0 in
03:39 51.3 °F 28.9 °F 30.3 in SO 9 mph 14 mph 42.1% 0 in
03:44 50.7 °F 29.1 °F 30.3 in SO 9.2 mph 15 mph 43.2% 0 in
03:49 50 °F 29.3 °F 30.3 in SSO 9.2 mph 15 mph 44.7% 0 in
03:54 49.6 °F 29.1 °F 30.3 in SO 9.2 mph 15.2 mph 44.8% 0 in
03:59 50.4 °F 29.1 °F 30.3 in SO 10.3 mph 15 mph 44% 0 in
04:04 50.2 °F 29.5 °F 30.3 in SO 10.7 mph 15 mph 44.8% 0 in
04:09 50 °F 29.5 °F 30.3 in SSO 8.7 mph 13.7 mph 45% 0 in
04:14 49.6 °F 29.7 °F 30.3 in SSO 7.6 mph 14 mph 45.8% 0 in
04:19 49.5 °F 29.8 °F 30.3 in SSO 8.6 mph 14 mph 46.8% 0 in
04:24 48.9 °F 30 °F 30.3 in SSO 9.2 mph 14 mph 47.8% 0 in
04:29 48.7 °F 29.8 °F 30.3 in SSO 9.2 mph 14 mph 48% 0 in
04:34 48.7 °F 29.8 °F 30.3 in SSO 9.2 mph 14 mph 47.9% 0 in
04:39 48.4 °F 29.7 °F 30.3 in SSO 8.4 mph 11.5 mph 48% 0 in
04:44 48 °F 29.7 °F 30.3 in SSO 8.1 mph 12 mph 48.8% 0 in
04:49 47.8 °F 30 °F 30.3 in SSO 7.3 mph 11 mph 50.2% 0 in
04:54 47.1 °F 30.4 °F 30.3 in SSO 6.9 mph 10.4 mph 51.8% 0 in
04:59 46.8 °F 30.4 °F 30.3 in SSO 6.9 mph 10.4 mph 52.6% 0 in
05:04 46.9 °F 30 °F 30.3 in SSO 6.9 mph 10.4 mph 51.9% 0 in
05:09 47.3 °F 29.5 °F 30.3 in SSO 6.6 mph 10.4 mph 49.9% 0 in
05:14 47.8 °F 29.1 °F 30.3 in SO 6.4 mph 10 mph 48% 0 in
05:19 48.2 °F 28.9 °F 30.3 in SO 6.3 mph 9.2 mph 47% 0 in
05:24 48.2 °F 28.8 °F 30.3 in SSO 6.2 mph 10.4 mph 46.7% 0 in
05:29 48.4 °F 28.4 °F 30.3 in SSO 6.2 mph 11.2 mph 45.8% 0 in
05:34 48.7 °F 28 °F 30.3 in SSO 6.2 mph 12 mph 44.4% 0 in
05:39 49.1 °F 27.5 °F 30.3 in Sur 6.6 mph 12 mph 43.1% 0 in
05:44 49.3 °F 27.7 °F 30.3 in SSO 6.9 mph 12 mph 43% 0 in
05:49 49.3 °F 27.3 °F 30.3 in SSO 7.7 mph 14 mph 42.5% 0 in
05:54 49.5 °F 27.1 °F 30.3 in SSO 8.1 mph 14 mph 41.8% 0 in
05:59 49.5 °F 26.8 °F 30.3 in SSO 8.4 mph 14 mph 41.1% 0 in
06:04 49.5 °F 26.8 °F 30.3 in SSO 8.5 mph 12.7 mph 41% 0 in
06:09 49.3 °F 26.6 °F 30.3 in SSO 7.4 mph 13 mph 41% 0 in
06:14 49.5 °F 26.2 °F 30.3 in SO 6.9 mph 13 mph 40.3% 0 in
06:19 49.6 °F 26.2 °F 30.3 in SSO 7.2 mph 13 mph 39.9% 0 in
06:24 49.6 °F 26.2 °F 30.3 in SSO 7.4 mph 12 mph 40% 0 in
06:29 49.5 °F 26.2 °F 30.3 in Sur 6.6 mph 12 mph 40.3% 0 in
06:34 48.9 °F 26.2 °F 30.3 in SSO 6.2 mph 11.5 mph 41% 0 in
06:39 48.6 °F 26.1 °F 30.3 in SSO 6.3 mph 12 mph 41% 0 in
06:44 48.7 °F 26.1 °F 30.3 in SSO 6.4 mph 9.7 mph 41% 0 in
06:49 48.9 °F 25.7 °F 30.3 in SSO 6.4 mph 13.8 mph 40% 0 in
06:54 49.5 °F 25.7 °F 30.3 in SO 6.4 mph 14 mph 39.5% 0 in
06:59 49.5 °F 25.5 °F 30.3 in SO 7.6 mph 13 mph 39% 0 in
07:04 49.5 °F 25.5 °F 30.3 in SSO 8.1 mph 11.5 mph 39% 0 in
07:09 49.6 °F 25.7 °F 30.3 in SSO 7.8 mph 12 mph 39% 0 in
07:14 49.6 °F 25.7 °F 30.3 in SSO 7.6 mph 12 mph 39% 0 in
07:19 49.5 °F 25.5 °F 30.3 in Sur 6.7 mph 12 mph 39.2% 0 in
07:24 48.9 °F 25.9 °F 30.3 in Sur 6.2 mph 11.2 mph 40.4% 0 in
07:29 48.2 °F 25.9 °F 30.3 in SSO 6.6 mph 12 mph 41.3% 0 in
07:34 48 °F 25.9 °F 30.3 in Sur 6.9 mph 12 mph 41.8% 0 in
07:39 47.8 °F 25.9 °F 30.3 in Sur 6.6 mph 10 mph 42% 0 in
07:44 47.8 °F 25.9 °F 30.3 in SSO 6.4 mph 10.4 mph 42% 0 in
07:49 47.8 °F 25.9 °F 30.3 in SSO 6.3 mph 10 mph 42.1% 0 in
07:54 47.7 °F 25.9 °F 30.3 in SSO 6.2 mph 9.2 mph 42.4% 0 in
07:59 47.8 °F 25.7 °F 30.3 in SSO 6.3 mph 10.4 mph 42% 0 in
08:04 48 °F 25.5 °F 30.3 in SSO 6.4 mph 10.7 mph 41.3% 0 in
08:09 48 °F 25.5 °F 30.3 in SSO 6.7 mph 11 mph 41% 0 in
08:14 48.4 °F 25.3 °F 30.3 in SSO 6.9 mph 11.8 mph 40.2% 0 in
08:19 48.7 °F 25 °F 30.3 in SSO 6.9 mph 12.7 mph 39.3% 0 in
08:24 49.1 °F 24.8 °F 30.3 in SO 6.9 mph 13 mph 38.6% 0 in
08:29 49.5 °F 24.8 °F 30.3 in SO 6.9 mph 10.4 mph 38% 0 in
08:34 49.5 °F 24.6 °F 30.3 in SSO 6.9 mph 13 mph 37.5% 0 in
08:39 49.8 °F 24.6 °F 30.3 in SO 7.3 mph 13 mph 37% 0 in
08:44 49.8 °F 24.6 °F 30.3 in SO 7.6 mph 13 mph 37% 0 in
08:49 49.8 °F 24.6 °F 30.3 in SSO 6.6 mph 11 mph 37% 0 in
08:54 49.8 °F 24.6 °F 30.3 in Sur 6.2 mph 9 mph 37% 0 in
08:59 49.6 °F 25 °F 30.3 in SSO 5.5 mph 7.4 mph 38% 0 in
09:04 49.6 °F 25 °F 30.3 in Oeste 5.2 mph 7 mph 38% 0 in
09:09 49.5 °F 25 °F 30.3 in Oeste 3.9 mph 5 mph 38.1% 0 in
09:14 49.5 °F 25.3 °F 30.3 in Oeste 3.1 mph 5 mph 39% 0 in
09:19 49.3 °F 25.9 °F 30.3 in OSO 3 mph 5.8 mph 40% 0 in
09:24 48.9 °F 25.7 °F 30.3 in SO 2.9 mph 6.9 mph 40.2% 0 in
09:29 49.1 °F 25.9 °F 30.3 in SO 2.9 mph 7 mph 40.1% 0 in
09:34 49.3 °F 27 °F 30.4 in SO 3.1 mph 5 mph 41.7% 0 in
09:39 49.3 °F 26.6 °F 30.4 in SO 3.1 mph 4 mph 41% 0 in
09:44 49.6 °F 26.6 °F 30.4 in SO 2.5 mph 5.4 mph 40.4% 0 in
09:49 50.7 °F 26.4 °F 30.4 in Sur 1.9 mph 6.2 mph 38.6% 0 in
09:54 51.3 °F 26.4 °F 30.4 in SSO 3.1 mph 6 mph 38% 0 in
09:59 51.6 °F 26.2 °F 30.4 in SSO 3.8 mph 6.2 mph 37.1% 0 in
10:04 52.2 °F 26.2 °F 30.4 in SSO 4 mph 6.2 mph 36.5% 0 in
10:09 52.2 °F 26.1 °F 30.4 in SO 4 mph 6.2 mph 36.1% 0 in
10:14 52.5 °F 26.2 °F 30.4 in SSO 4 mph 6.9 mph 36% 0 in
10:19 53.1 °F 26.2 °F 30.4 in SO 4 mph 7 mph 35.3% 0 in
10:24 53.2 °F 25.5 °F 30.4 in SO 4 mph 8.1 mph 34% 0 in
10:29 53.4 °F 25.7 °F 30.4 in SO 4.2 mph 8 mph 34% 0 in
10:34 54 °F 25.7 °F 30.4 in SO 4.3 mph 6.9 mph 33.6% 0 in
10:39 54 °F 25.9 °F 30.4 in SO 4.2 mph 7 mph 33.5% 0 in
10:44 54.1 °F 25.7 °F 30.4 in OSO 4 mph 6.9 mph 33% 0 in
10:49 54.5 °F 25.9 °F 30.4 in SO 4 mph 7 mph 33% 0 in
10:54 54.7 °F 26.2 °F 30.4 in SO 4.2 mph 6.2 mph 33% 0 in
10:59 55 °F 25.9 °F 30.4 in OSO 4 mph 8.1 mph 32.1% 0 in
11:04 55.2 °F 26.6 °F 30.4 in OSO 4 mph 8.1 mph 33% 0 in
11:09 55.4 °F 26.8 °F 30.4 in OSO 4.3 mph 8.1 mph 33% 0 in
11:14 55.6 °F 27 °F 30.4 in OSO 4.3 mph 9.7 mph 33% 0 in
11:19 55.8 °F 27 °F 30.4 in SO 4.5 mph 10 mph 33.1% 0 in
11:24 55.8 °F 27.3 °F 30.4 in SO 4.7 mph 8.1 mph 33.2% 0 in
11:29 55.8 °F 27.5 °F 30.4 in SO 4.7 mph 7 mph 33.6% 0 in
11:34 55.9 °F 27.1 °F 30.4 in OSO 4.7 mph 7 mph 33% 0 in
11:39 56.1 °F 27.5 °F 30.4 in SO 4.7 mph 6.9 mph 33% 0 in
11:44 56.5 °F 27.3 °F 30.4 in SO 4.7 mph 8.5 mph 32.7% 0 in
11:49 56.7 °F 27.7 °F 30.4 in SO 4.6 mph 9 mph 32.8% 0 in
11:54 56.8 °F 27.3 °F 30.4 in SO 4.3 mph 9.2 mph 32% 0 in
11:59 57 °F 27.1 °F 30.4 in OSO 4.7 mph 9.2 mph 31.7% 0 in
12:04 57.6 °F 27 °F 30.4 in SO 4.7 mph 9 mph 31% 0 in
12:09 57.6 °F 27.1 °F 30.4 in ONO 4.5 mph 9.2 mph 31% 0 in
12:14 57.7 °F 27.1 °F 30.3 in Oeste 4.3 mph 9.2 mph 30.7% 0 in
12:19 58.1 °F 26.8 °F 30.3 in OSO 4.3 mph 8.1 mph 30% 0 in
12:24 58.5 °F 27 °F 30.3 in OSO 4.7 mph 8.7 mph 29.9% 0 in
12:29 58.6 °F 26.4 °F 30.3 in OSO 4.4 mph 10.4 mph 29% 0 in
12:34 58.6 °F 26.4 °F 30.3 in SO 4.3 mph 10 mph 29% 0 in
12:39 58.8 °F 26.6 °F 30.3 in OSO 5 mph 10 mph 29.1% 0 in
12:44 58.8 °F 26.8 °F 30.3 in OSO 5.4 mph 9 mph 29% 0 in
12:49 59 °F 26.8 °F 30.3 in OSO 5.3 mph 8 mph 28.8% 0 in
12:54 59.4 °F 26.2 °F 30.3 in OSO 4.7 mph 8.5 mph 28% 0 in
12:59 59.5 °F 26.6 °F 30.3 in Oeste 5.1 mph 9 mph 28.2% 0 in
13:04 59.9 °F 26.8 °F 30.3 in SSO 5.2 mph 9.2 mph 28.2% 0 in
13:09 60.1 °F 27.3 °F 30.3 in OSO 5.2 mph 10 mph 28.4% 0 in
13:14 60.3 °F 27 °F 30.3 in OSO 5.2 mph 10 mph 28% 0 in
13:19 60.4 °F 27.1 °F 30.3 in OSO 4.8 mph 6.9 mph 28% 0 in
13:24 60.6 °F 27.1 °F 30.3 in SO 4.7 mph 7 mph 27.8% 0 in
13:29 61 °F 27 °F 30.3 in SSO 4.2 mph 6.2 mph 27.3% 0 in
13:34 61.2 °F 27 °F 30.3 in SO 4 mph 8.1 mph 27.1% 0 in
13:39 61.2 °F 27 °F 30.3 in OSO 4 mph 8.1 mph 26.9% 0 in
13:44 61.2 °F 26.1 °F 30.3 in OSO 4 mph 8 mph 26% 0 in
13:49 61.3 °F 26.8 °F 30.3 in OSO 3.7 mph 7 mph 26.6% 0 in
13:54 61.5 °F 26.4 °F 30.3 in Oeste 3.6 mph 6 mph 26% 0 in
13:59 61.9 °F 25.9 °F 30.3 in SSO 3.6 mph 8.1 mph 25.5% 0 in
14:04 62.2 °F 26.1 °F 30.3 in SO 3.6 mph 8 mph 25.2% 0 in
14:09 62.4 °F 26.4 °F 30.3 in SSO 3.6 mph 6 mph 25.4% 0 in
14:14 62.8 °F 26.4 °F 30.3 in SSO 3.6 mph 6.9 mph 25% 0 in
14:19 63 °F 26.4 °F 30.3 in SSE 3.2 mph 7 mph 24.8% 0 in
14:24 63 °F 26.2 °F 30.3 in SE 2.9 mph 7 mph 24.7% 0 in
14:29 63 °F 26.6 °F 30.3 in SSO 3.9 mph 6.2 mph 25% 0 in
14:34 63.1 °F 26.6 °F 30.3 in SO 4.3 mph 8.1 mph 25% 0 in
14:39 63.1 °F 26.8 °F 30.3 in SO 3.9 mph 8 mph 25% 0 in
14:44 63.5 °F 26.8 °F 30.3 in SSO 3.6 mph 4.3 mph 24.7% 0 in
14:49 63.7 °F 26.2 °F 30.3 in OSO 2.5 mph 5.2 mph 24% 0 in
14:54 63.9 °F 26.2 °F 30.3 in OSO 2 mph 5 mph 23.9% 0 in
14:59 64 °F 26.4 °F 30.3 in Sur 2 mph 5 mph 23.9% 0 in
15:04 64.2 °F 26.6 °F 30.3 in SSO 2 mph 5.4 mph 24% 0 in
15:09 64.2 °F 26.2 °F 30.3 in SO 2.6 mph 5.2 mph 23.6% 0 in
15:14 64.4 °F 26.1 °F 30.3 in SO 2.9 mph 5 mph 23.4% 0 in
15:19 64.6 °F 26.1 °F 30.3 in SSO 2.9 mph 5.9 mph 23.3% 0 in
15:24 64.6 °F 25.9 °F 30.3 in Sur 2.9 mph 6 mph 23% 0 in
15:29 64.8 °F 26.1 °F 30.3 in SSE 2.9 mph 5 mph 23% 0 in
15:34 64.6 °F 25.9 °F 30.3 in SSE 2.9 mph 5.2 mph 23% 0 in
15:39 64.8 °F 26.8 °F 30.3 in SSO 2.9 mph 5 mph 23.7% 0 in
15:44 64.9 °F 26.6 °F 30.3 in SSO 2.9 mph 5 mph 23.4% 0 in
15:49 64.9 °F 26.8 °F 30.3 in SSO 2.5 mph 5 mph 23.6% 0 in
15:54 64.8 °F 26.8 °F 30.3 in Sur 2.4 mph 5.2 mph 23.7% 0 in
15:59 64.6 °F 26.6 °F 30.3 in NNE 2.4 mph 5 mph 23.7% 0 in
16:04 64.6 °F 26.2 °F 30.3 in NNE 2.4 mph 4 mph 23.3% 0 in
16:09 64.8 °F 26.2 °F 30.3 in NNE 0.9 mph 2 mph 23.3% 0 in
16:14 64.9 °F 27 °F 30.3 in Calm   4 mph 23.8% 0 in
16:19 64.8 °F 26.2 °F 30.3 in ENE 1.2 mph 5 mph 23% 0 in
16:24 64.8 °F 26.1 °F 30.3 in ENE 1.8 mph 4 mph 23% 0 in
16:29 64.8 °F 26.1 °F 30.3 in ENE 1.8 mph 4.6 mph 23% 0 in
16:34 64.8 °F 26.4 °F 30.3 in ENE 1.8 mph 5 mph 23.4% 0 in
16:39 64.8 °F 26.6 °F 30.3 in NE 1.6 mph 4.6 mph 23.6% 0 in
16:44 64.8 °F 26.8 °F 30.3 in NNE 1.4 mph 5 mph 23.6% 0 in
16:49 64.8 °F 27.1 °F 30.3 in NNE 1.8 mph 4 mph 24% 0 in
16:54 64.8 °F 27.1 °F 30.3 in NNE 2 mph 3.6 mph 24% 0 in
16:59 64.6 °F 27.1 °F 30.3 in NNE 1.6 mph 4 mph 24.2% 0 in
17:04 64.6 °F 27.3 °F 30.3 in NNE 1.4 mph 3.1 mph 24.4% 0 in
17:09 64.6 °F 27 °F 30.3 in NNE 1.7 mph 3.5 mph 24.1% 0 in
17:14 64.6 °F 27 °F 30.3 in NNE 1.8 mph 3 mph 24% 0 in
17:19 64.4 °F 27 °F 30.3 in NNE 0.7 mph 3.5 mph 24.2% 0 in
17:24 64.2 °F 27 °F 30.3 in Calm   3.5 mph 24.2% 0 in
17:29 64 °F 27.3 °F 30.3 in NNE 1.3 mph 3.5 mph 24.8% 0 in
17:34 64 °F 27.5 °F 30.3 in NNE 2 mph 3 mph 25% 0 in
17:39 63.9 °F 27.9 °F 30.3 in NNE 1.9 mph 3 mph 25.5% 0 in
17:44 63.9 °F 28.6 °F 30.3 in ESE 1.8 mph 5.8 mph 26.4% 0 in
17:49 63.5 °F 29.5 °F 30.3 in Sur 2.5 mph 6 mph 27.8% 0 in
17:54 63.1 °F 30.2 °F 30.3 in Sur 2.9 mph 5 mph 28.8% 0 in
17:59 62.6 °F 30.4 °F 30.3 in Sur 2.9 mph 5 mph 29.6% 0 in
18:04 62.1 °F 30.7 °F 30.3 in Sur 2.9 mph 5.2 mph 30.6% 0 in
18:09 61.7 °F 30.9 °F 30.3 in SSE 3 mph 5.2 mph 31.1% 0 in
18:14 61.2 °F 31.1 °F 30.3 in SSE 3.1 mph 5.2 mph 32% 0 in
18:19 60.6 °F 31.8 °F 30.3 in SE 3.4 mph 5 mph 33.5% 0 in
18:24 60.1 °F 32.2 °F 30.3 in SE 3.6 mph 5.2 mph 34.8% 0 in
18:29 59.4 °F 32 °F 30.3 in SE 3.3 mph 5.2 mph 35.5% 0 in
18:34 58.6 °F 31.8 °F 30.3 in SE 3.1 mph 5.2 mph 36.1% 0 in
18:39 57.9 °F 31.8 °F 30.3 in SE 3.4 mph 5.2 mph 37% 0 in
18:44 57.6 °F 31.8 °F 30.3 in SE 3.6 mph 5.2 mph 37.6% 0 in
18:49 57 °F 31.6 °F 30.3 in SE 3.3 mph 5 mph 38% 0 in
18:54 56.7 °F 31.5 °F 30.3 in SE 3.1 mph 5 mph 38% 0 in
18:59 56.3 °F 31.6 °F 30.3 in SE 3 mph 5 mph 39% 0 in
19:04 55.9 °F 31.6 °F 30.3 in Sur 2.9 mph 5 mph 39.7% 0 in
19:09 55.8 °F 31.6 °F 30.3 in Sur 2.9 mph 5 mph 39.6% 0 in
19:14 55.6 °F 31.1 °F 30.3 in Sur 2.9 mph 5 mph 39.2% 0 in
19:19 55.6 °F 31.1 °F 30.3 in Sur 2.3 mph 3 mph 39% 0 in
19:24 55.6 °F 31.5 °F 30.3 in Sur 2 mph 2.4 mph 39.8% 0 in
19:29 55.4 °F 31.8 °F 30.3 in SO 2 mph 4.7 mph 40.6% 0 in
19:34 54.9 °F 32.2 °F 30.3 in SO 2 mph 5 mph 41.8% 0 in
19:39 54.5 °F 32.2 °F 30.3 in OSO 2.2 mph 4.7 mph 42.8% 0 in
19:44 54 °F 32.2 °F 30.3 in Oeste 2.4 mph 5.2 mph 43.3% 0 in
19:49 53.6 °F 32.2 °F 30.3 in ONO 2.9 mph 5 mph 44% 0 in
19:54 53.2 °F 32 °F 30.3 in ONO 3.1 mph 5 mph 44.2% 0 in
19:59 53.1 °F 31.6 °F 30.3 in ONO 2.6 mph 5 mph 44% 0 in
20:04 53.2 °F 31.8 °F 30.3 in Oeste 2.4 mph 5.2 mph 44% 0 in
20:09 53.4 °F 32 °F 30.3 in OSO 2.9 mph 5.8 mph 44% 0 in
20:14 53.4 °F 31.6 °F 30.3 in SO 3.1 mph 6 mph 43.2% 0 in
20:19 53.4 °F 31.8 °F 30.3 in SO 3.1 mph 6 mph 43.7% 0 in
20:24 53.2 °F 30.9 °F 30.3 in SSO 3.1 mph 8.5 mph 42.2% 0 in
20:29 53.1 °F 30.6 °F 30.3 in SSO 4.1 mph 9 mph 41.8% 0 in
20:34 53.1 °F 30 °F 30.3 in SO 4.7 mph 8 mph 41.2% 0 in
20:39 53.1 °F 29.8 °F 30.3 in SO 4.7 mph 7 mph 40.7% 0 in
20:44 53.2 °F 29.5 °F 30.3 in SSO 4.7 mph 7 mph 40% 0 in
20:49 53.2 °F 29.5 °F 30.3 in SSO 4 mph 6 mph 40% 0 in
20:54 53.1 °F 30 °F 30.3 in SSE 3.6 mph 6.9 mph 41.2% 0 in
20:59 52.3 °F 30.4 °F 30.3 in SE 4.1 mph 7 mph 42.8% 0 in
21:04 51.6 °F 31.5 °F 30.3 in SE 4.3 mph 7 mph 45.9% 0 in
21:09 50.5 °F 31.6 °F 30.3 in Sur 4.3 mph 6.9 mph 48.1% 0 in
21:14 49.6 °F 31.6 °F 30.3 in Sur 4.3 mph 7.4 mph 49.8% 0 in
21:19 49.3 °F 31.8 °F 30.3 in Sur 4.1 mph 7 mph 50.7% 0 in
21:24 48.9 °F 31.6 °F 30.3 in Sur 4 mph 6 mph 51% 0 in
21:29 48.9 °F 31.6 °F 30.3 in SSO 3.3 mph 5 mph 51% 0 in
21:34 48.9 °F 31.6 °F 30.3 in SSO 2.9 mph 4.3 mph 51% 0 in
21:39 49.1 °F 32.2 °F 30.3 in Sur 2.5 mph 5.2 mph 52% 0 in
21:44 48.7 °F 32 °F 30.3 in SSE 2.4 mph 6.9 mph 52.4% 0 in
21:49 48.4 °F 32.2 °F 30.3 in SSE 3.4 mph 7 mph 53.6% 0 in
21:54 47.8 °F 32.2 °F 30.3 in SSE 4 mph 6 mph 54.1% 0 in
21:59 47.7 °F 32.4 °F 30.3 in SSE 4 mph 6 mph 55% 0 in
22:04 47.7 °F 32.4 °F 30.3 in SE 4 mph 6 mph 55.1% 0 in
22:09 47.5 °F 32.5 °F 30.3 in SE 3.4 mph 5.2 mph 56% 0 in
22:14 47.1 °F 32.7 °F 30.3 in SE 3.1 mph 5.2 mph 56.8% 0 in
22:19 46.9 °F 32.7 °F 30.3 in SSE 3.4 mph 5.9 mph 57.5% 0 in
22:24 46.9 °F 32.7 °F 30.3 in Sur 3.6 mph 6.9 mph 57.7% 0 in
22:29 46.9 °F 32.5 °F 30.3 in Sur 4 mph 7.4 mph 57% 0 in
22:34 47.3 °F 32.9 °F 30.3 in SSO 4.3 mph 7 mph 57% 0 in
22:39 47.7 °F 32.5 °F 30.3 in SSO 4.5 mph 7.4 mph 55.9% 0 in
22:44 47.8 °F 32 °F 30.3 in SSO 4.7 mph 8.1 mph 54.1% 0 in
22:49 48.2 °F 31.6 °F 30.3 in SSO 5 mph 8.5 mph 52.7% 0 in
22:54 48.6 °F 31.6 °F 30.3 in SO 5.2 mph 9 mph 52% 0 in
22:59 48.6 °F 31.6 °F 30.3 in SO 5.3 mph 8 mph 52% 0 in
23:04 48.7 °F 32.2 °F 30.3 in SO 5.4 mph 7 mph 52.7% 0 in
23:09 48.7 °F 32.4 °F 30.3 in OSO 4.5 mph 6 mph 53% 0 in
23:14 48.7 °F 32.4 °F 30.3 in OSO 4 mph 6 mph 53% 0 in
23:19 48.6 °F 32.2 °F 30.3 in OSO 3.7 mph 6.2 mph 53% 0 in
23:24 48.2 °F 32.4 °F 30.3 in SO 3.6 mph 6 mph 54% 0 in
23:29 47.8 °F 32.5 °F 30.3 in SSO 3.6 mph 6 mph 55% 0 in
23:34 47.8 °F 32.7 °F 30.3 in SSO 3.6 mph 5.9 mph 55.7% 0 in
23:39 47.8 °F 32.9 °F 30.3 in SSO 3.2 mph 6 mph 56% 0 in
23:44 47.8 °F 32.9 °F 30.3 in SSO 2.9 mph 5 mph 56.1% 0 in
23:49 47.7 °F 33.4 °F 30.3 in SSO 2.3 mph 3.5 mph 57.7% 0 in
23:54 47.5 °F 33.6 °F 30.3 in SSO 2 mph 4 mph 58.6% 0 in
23:59 46.8 °F 33.6 °F 30.3 in SSE 2 mph 5 mph 59.8% 0 in
Murcia-Puente Tocinos, España
Compliments of Weather Underground - 3.5 mb

La estación de MeteoMurcia.com, publica sus datos en los siguientes proyectos:

Weather Underground PWS IMURCIAP2 Meteoclimatic www.awekas.at

W3Counter
Web Analytics